sensor_id;sensor_type;location;lat;lon;timestamp;P1;durP1;ratioP1;P2;durP2;ratioP2
64688;SDS011;51114;46.070;14.492;2022-07-24T00:00:21;25.00;;;12.55;;
64688;SDS011;51114;46.070;14.492;2022-07-24T00:02:47;22.38;;;12.32;;
64688;SDS011;51114;46.070;14.492;2022-07-24T00:05:12;19.90;;;12.93;;
64688;SDS011;51114;46.070;14.492;2022-07-24T00:07:38;20.42;;;12.93;;
64688;SDS011;51114;46.070;14.492;2022-07-24T00:10:04;22.23;;;14.02;;
64688;SDS011;51114;46.070;14.492;2022-07-24T00:12:31;24.10;;;13.88;;
64688;SDS011;51114;46.070;14.492;2022-07-24T00:14:57;25.20;;;14.40;;
64688;SDS011;51114;46.070;14.492;2022-07-24T00:17:23;22.65;;;13.77;;
64688;SDS011;51114;46.070;14.492;2022-07-24T00:19:48;29.67;;;15.50;;
64688;SDS011;51114;46.070;14.492;2022-07-24T00:22:14;25.45;;;14.25;;
64688;SDS011;51114;46.070;14.492;2022-07-24T00:24:39;21.65;;;14.50;;
64688;SDS011;51114;46.070;14.492;2022-07-24T00:27:05;22.08;;;14.52;;
64688;SDS011;51114;46.070;14.492;2022-07-24T00:29:31;21.73;;;13.35;;
64688;SDS011;51114;46.070;14.492;2022-07-24T00:31:56;22.05;;;14.82;;
64688;SDS011;51114;46.070;14.492;2022-07-24T00:34:22;18.10;;;14.13;;
64688;SDS011;51114;46.070;14.492;2022-07-24T00:36:48;17.48;;;13.85;;
64688;SDS011;51114;46.070;14.492;2022-07-24T00:39:13;23.73;;;15.10;;
64688;SDS011;51114;46.070;14.492;2022-07-24T00:41:39;20.55;;;15.32;;
64688;SDS011;51114;46.070;14.492;2022-07-24T00:44:06;19.85;;;15.63;;
64688;SDS011;51114;46.070;14.492;2022-07-24T00:46:40;21.20;;;15.13;;
64688;SDS011;51114;46.070;14.492;2022-07-24T00:49:08;20.02;;;14.32;;
64688;SDS011;51114;46.070;14.492;2022-07-24T00:51:35;19.63;;;14.38;;
64688;SDS011;51114;46.070;14.492;2022-07-24T00:54:05;19.50;;;14.27;;
64688;SDS011;51114;46.070;14.492;2022-07-24T00:56:31;21.63;;;14.40;;
64688;SDS011;51114;46.070;14.492;2022-07-24T00:58:57;20.05;;;15.02;;
64688;SDS011;51114;46.070;14.492;2022-07-24T01:01:24;22.25;;;14.90;;
64688;SDS011;51114;46.070;14.492;2022-07-24T01:03:50;21.27;;;14.38;;
64688;SDS011;51114;46.070;14.492;2022-07-24T01:06:15;19.75;;;15.35;;
64688;SDS011;51114;46.070;14.492;2022-07-24T01:08:41;21.73;;;15.73;;
64688;SDS011;51114;46.070;14.492;2022-07-24T01:11:10;20.27;;;15.43;;
64688;SDS011;51114;46.070;14.492;2022-07-24T01:13:37;22.17;;;15.45;;
64688;SDS011;51114;46.070;14.492;2022-07-24T01:16:04;18.30;;;15.35;;
64688;SDS011;51114;46.070;14.492;2022-07-24T01:18:30;24.00;;;15.32;;
64688;SDS011;51114;46.070;14.492;2022-07-24T01:20:56;21.10;;;15.68;;
64688;SDS011;51114;46.070;14.492;2022-07-24T01:23:22;19.58;;;15.45;;
64688;SDS011;51114;46.070;14.492;2022-07-24T01:25:48;20.45;;;15.13;;
64688;SDS011;51114;46.070;14.492;2022-07-24T01:28:14;22.85;;;15.85;;
64688;SDS011;51114;46.070;14.492;2022-07-24T01:30:39;22.90;;;15.65;;
64688;SDS011;51114;46.070;14.492;2022-07-24T01:33:05;19.83;;;16.08;;
64688;SDS011;51114;46.070;14.492;2022-07-24T01:35:31;19.95;;;15.75;;
64688;SDS011;51114;46.070;14.492;2022-07-24T01:37:56;25.52;;;15.40;;
64688;SDS011;51114;46.070;14.492;2022-07-24T01:40:22;20.92;;;16.30;;
64688;SDS011;51114;46.070;14.492;2022-07-24T01:42:47;22.38;;;15.93;;
64688;SDS011;51114;46.070;14.492;2022-07-24T01:45:14;19.13;;;16.10;;
64688;SDS011;51114;46.070;14.492;2022-07-24T01:47:40;20.77;;;16.23;;
64688;SDS011;51114;46.070;14.492;2022-07-24T01:50:08;22.80;;;16.58;;
64688;SDS011;51114;46.070;14.492;2022-07-24T01:52:34;23.50;;;16.25;;
64688;SDS011;51114;46.070;14.492;2022-07-24T01:55:00;20.13;;;16.13;;
64688;SDS011;51114;46.070;14.492;2022-07-24T01:57:26;23.83;;;16.65;;
64688;SDS011;51114;46.070;14.492;2022-07-24T01:59:51;24.88;;;16.40;;
64688;SDS011;51114;46.070;14.492;2022-07-24T02:02:17;22.33;;;16.63;;
64688;SDS011;51114;46.070;14.492;2022-07-24T02:04:43;24.15;;;16.33;;
64688;SDS011;51114;46.070;14.492;2022-07-24T02:07:08;18.23;;;15.65;;
64688;SDS011;51114;46.070;14.492;2022-07-24T02:09:34;21.52;;;15.52;;
64688;SDS011;51114;46.070;14.492;2022-07-24T02:11:59;21.33;;;14.25;;
64688;SDS011;51114;46.070;14.492;2022-07-24T02:14:25;20.70;;;14.32;;
64688;SDS011;51114;46.070;14.492;2022-07-24T02:16:50;20.85;;;13.95;;
64688;SDS011;51114;46.070;14.492;2022-07-24T02:19:16;20.95;;;14.35;;
64688;SDS011;51114;46.070;14.492;2022-07-24T02:21:42;22.85;;;15.57;;
64688;SDS011;51114;46.070;14.492;2022-07-24T02:24:07;23.05;;;14.07;;
64688;SDS011;51114;46.070;14.492;2022-07-24T02:26:33;17.95;;;14.93;;
64688;SDS011;51114;46.070;14.492;2022-07-24T02:28:59;20.38;;;14.70;;
64688;SDS011;51114;46.070;14.492;2022-07-24T02:31:24;22.48;;;15.90;;
64688;SDS011;51114;46.070;14.492;2022-07-24T02:33:50;24.92;;;15.77;;
64688;SDS011;51114;46.070;14.492;2022-07-24T02:36:15;23.88;;;16.20;;
64688;SDS011;51114;46.070;14.492;2022-07-24T02:38:42;25.17;;;16.02;;
64688;SDS011;51114;46.070;14.492;2022-07-24T02:41:08;22.13;;;15.95;;
64688;SDS011;51114;46.070;14.492;2022-07-24T02:43:33;22.37;;;16.80;;
64688;SDS011;51114;46.070;14.492;2022-07-24T02:45:59;23.43;;;15.60;;
64688;SDS011;51114;46.070;14.492;2022-07-24T02:48:25;22.83;;;16.37;;
64688;SDS011;51114;46.070;14.492;2022-07-24T02:50:50;19.30;;;15.80;;
64688;SDS011;51114;46.070;14.492;2022-07-24T02:53:16;26.20;;;17.23;;
64688;SDS011;51114;46.070;14.492;2022-07-24T02:55:42;21.75;;;16.58;;
64688;SDS011;51114;46.070;14.492;2022-07-24T02:58:07;25.83;;;18.20;;
64688;SDS011;51114;46.070;14.492;2022-07-24T03:00:33;22.60;;;17.10;;
64688;SDS011;51114;46.070;14.492;2022-07-24T03:03:00;28.30;;;16.50;;
64688;SDS011;51114;46.070;14.492;2022-07-24T03:05:26;25.90;;;17.73;;
64688;SDS011;51114;46.070;14.492;2022-07-24T03:07:52;27.27;;;18.43;;
64688;SDS011;51114;46.070;14.492;2022-07-24T03:10:18;24.73;;;17.05;;
64688;SDS011;51114;46.070;14.492;2022-07-24T03:12:44;23.52;;;16.65;;
64688;SDS011;51114;46.070;14.492;2022-07-24T03:15:10;21.63;;;16.17;;
64688;SDS011;51114;46.070;14.492;2022-07-24T03:17:37;22.10;;;16.13;;
64688;SDS011;51114;46.070;14.492;2022-07-24T03:20:03;26.27;;;17.05;;
64688;SDS011;51114;46.070;14.492;2022-07-24T03:22:30;23.05;;;16.75;;
64688;SDS011;51114;46.070;14.492;2022-07-24T03:24:55;25.70;;;17.63;;
64688;SDS011;51114;46.070;14.492;2022-07-24T03:27:21;23.53;;;16.93;;
64688;SDS011;51114;46.070;14.492;2022-07-24T03:29:47;24.48;;;17.35;;
64688;SDS011;51114;46.070;14.492;2022-07-24T03:32:12;26.90;;;17.42;;
64688;SDS011;51114;46.070;14.492;2022-07-24T03:34:38;23.20;;;17.00;;
64688;SDS011;51114;46.070;14.492;2022-07-24T03:37:04;22.83;;;16.60;;
64688;SDS011;51114;46.070;14.492;2022-07-24T03:39:30;23.00;;;16.50;;
64688;SDS011;51114;46.070;14.492;2022-07-24T03:41:55;24.40;;;16.90;;
64688;SDS011;51114;46.070;14.492;2022-07-24T03:44:21;22.38;;;15.98;;
64688;SDS011;51114;46.070;14.492;2022-07-24T03:46:46;21.98;;;15.95;;
64688;SDS011;51114;46.070;14.492;2022-07-24T03:49:12;21.03;;;16.27;;
64688;SDS011;51114;46.070;14.492;2022-07-24T03:51:37;20.73;;;15.73;;
64688;SDS011;51114;46.070;14.492;2022-07-24T03:54:03;20.40;;;15.93;;
64688;SDS011;51114;46.070;14.492;2022-07-24T03:56:29;22.30;;;16.98;;
64688;SDS011;51114;46.070;14.492;2022-07-24T03:58:55;21.98;;;17.17;;
64688;SDS011;51114;46.070;14.492;2022-07-24T04:01:21;24.48;;;17.38;;
64688;SDS011;51114;46.070;14.492;2022-07-24T04:03:46;23.30;;;16.60;;
64688;SDS011;51114;46.070;14.492;2022-07-24T04:06:12;21.98;;;16.60;;
64688;SDS011;51114;46.070;14.492;2022-07-24T04:08:38;22.23;;;16.73;;
64688;SDS011;51114;46.070;14.492;2022-07-24T04:11:04;22.52;;;16.77;;
64688;SDS011;51114;46.070;14.492;2022-07-24T04:13:30;22.67;;;16.08;;
64688;SDS011;51114;46.070;14.492;2022-07-24T04:15:56;25.27;;;16.85;;
64688;SDS011;51114;46.070;14.492;2022-07-24T04:18:22;20.98;;;15.90;;
64688;SDS011;51114;46.070;14.492;2022-07-24T04:20:48;20.80;;;16.95;;
64688;SDS011;51114;46.070;14.492;2022-07-24T04:23:14;22.40;;;16.65;;
64688;SDS011;51114;46.070;14.492;2022-07-24T04:25:41;22.67;;;16.98;;
64688;SDS011;51114;46.070;14.492;2022-07-24T04:28:07;23.05;;;16.95;;
64688;SDS011;51114;46.070;14.492;2022-07-24T04:30:32;23.92;;;17.13;;
64688;SDS011;51114;46.070;14.492;2022-07-24T04:32:58;24.17;;;16.77;;
64688;SDS011;51114;46.070;14.492;2022-07-24T04:35:24;25.13;;;17.33;;
64688;SDS011;51114;46.070;14.492;2022-07-24T04:37:50;21.45;;;16.80;;
64688;SDS011;51114;46.070;14.492;2022-07-24T04:40:15;21.48;;;16.65;;
64688;SDS011;51114;46.070;14.492;2022-07-24T04:42:41;20.67;;;16.92;;
64688;SDS011;51114;46.070;14.492;2022-07-24T04:45:07;22.80;;;17.10;;
64688;SDS011;51114;46.070;14.492;2022-07-24T04:47:34;25.17;;;17.25;;
64688;SDS011;51114;46.070;14.492;2022-07-24T04:50:00;24.43;;;19.10;;
64688;SDS011;51114;46.070;14.492;2022-07-24T04:52:26;27.67;;;18.93;;
64688;SDS011;51114;46.070;14.492;2022-07-24T04:54:51;22.43;;;18.10;;
64688;SDS011;51114;46.070;14.492;2022-07-24T04:57:17;22.27;;;17.57;;
64688;SDS011;51114;46.070;14.492;2022-07-24T04:59:43;25.43;;;17.50;;
64688;SDS011;51114;46.070;14.492;2022-07-24T05:02:08;23.63;;;18.43;;
64688;SDS011;51114;46.070;14.492;2022-07-24T05:04:34;25.30;;;19.20;;
64688;SDS011;51114;46.070;14.492;2022-07-24T05:07:00;23.70;;;17.83;;
64688;SDS011;51114;46.070;14.492;2022-07-24T05:09:27;22.52;;;18.20;;
64688;SDS011;51114;46.070;14.492;2022-07-24T05:11:53;22.67;;;17.43;;
64688;SDS011;51114;46.070;14.492;2022-07-24T05:14:18;27.73;;;20.63;;
64688;SDS011;51114;46.070;14.492;2022-07-24T05:16:44;26.23;;;18.38;;
64688;SDS011;51114;46.070;14.492;2022-07-24T05:19:10;25.40;;;18.07;;
64688;SDS011;51114;46.070;14.492;2022-07-24T05:21:35;27.05;;;17.73;;
64688;SDS011;51114;46.070;14.492;2022-07-24T05:24:01;28.17;;;21.00;;
64688;SDS011;51114;46.070;14.492;2022-07-24T05:26:30;22.50;;;16.83;;
64688;SDS011;51114;46.070;14.492;2022-07-24T05:28:59;21.98;;;16.65;;
64688;SDS011;51114;46.070;14.492;2022-07-24T05:31:28;21.80;;;13.65;;
64688;SDS011;51114;46.070;14.492;2022-07-24T05:33:54;18.95;;;15.43;;
64688;SDS011;51114;46.070;14.492;2022-07-24T05:36:20;23.60;;;18.83;;
64688;SDS011;51114;46.070;14.492;2022-07-24T05:38:46;20.67;;;15.88;;
64688;SDS011;51114;46.070;14.492;2022-07-24T05:41:12;23.63;;;16.65;;
64688;SDS011;51114;46.070;14.492;2022-07-24T05:43:38;22.13;;;17.05;;
64688;SDS011;51114;46.070;14.492;2022-07-24T05:46:04;19.98;;;17.33;;
64688;SDS011;51114;46.070;14.492;2022-07-24T05:48:30;22.38;;;16.27;;
64688;SDS011;51114;46.070;14.492;2022-07-24T05:50:56;19.13;;;15.73;;
64688;SDS011;51114;46.070;14.492;2022-07-24T05:53:22;25.27;;;17.65;;
64688;SDS011;51114;46.070;14.492;2022-07-24T05:55:48;21.95;;;16.80;;
64688;SDS011;51114;46.070;14.492;2022-07-24T05:58:14;18.77;;;16.38;;
64688;SDS011;51114;46.070;14.492;2022-07-24T06:00:40;21.15;;;16.50;;
64688;SDS011;51114;46.070;14.492;2022-07-24T06:03:06;21.25;;;16.33;;
64688;SDS011;51114;46.070;14.492;2022-07-24T06:05:32;23.38;;;17.08;;
64688;SDS011;51114;46.070;14.492;2022-07-24T06:07:57;21.83;;;15.90;;
64688;SDS011;51114;46.070;14.492;2022-07-24T06:10:23;20.60;;;16.10;;
64688;SDS011;51114;46.070;14.492;2022-07-24T06:12:48;23.45;;;16.17;;
64688;SDS011;51114;46.070;14.492;2022-07-24T06:15:14;23.98;;;16.17;;
64688;SDS011;51114;46.070;14.492;2022-07-24T06:17:40;20.50;;;15.85;;
64688;SDS011;51114;46.070;14.492;2022-07-24T06:20:07;19.73;;;14.80;;
64688;SDS011;51114;46.070;14.492;2022-07-24T06:22:37;21.65;;;15.63;;
64688;SDS011;51114;46.070;14.492;2022-07-24T06:25:04;22.13;;;16.45;;
64688;SDS011;51114;46.070;14.492;2022-07-24T06:27:30;22.02;;;16.38;;
64688;SDS011;51114;46.070;14.492;2022-07-24T06:29:55;20.35;;;15.93;;
64688;SDS011;51114;46.070;14.492;2022-07-24T06:32:21;25.65;;;17.15;;
64688;SDS011;51114;46.070;14.492;2022-07-24T06:34:47;24.67;;;17.10;;
64688;SDS011;51114;46.070;14.492;2022-07-24T06:37:12;24.38;;;15.77;;
64688;SDS011;51114;46.070;14.492;2022-07-24T06:39:38;25.25;;;16.80;;
64688;SDS011;51114;46.070;14.492;2022-07-24T06:42:03;23.95;;;17.45;;
64688;SDS011;51114;46.070;14.492;2022-07-24T06:44:29;21.60;;;16.48;;
64688;SDS011;51114;46.070;14.492;2022-07-24T06:46:55;21.17;;;15.73;;
64688;SDS011;51114;46.070;14.492;2022-07-24T06:49:21;14.68;;;12.10;;
64688;SDS011;51114;46.070;14.492;2022-07-24T06:51:48;18.25;;;13.10;;
64688;SDS011;51114;46.070;14.492;2022-07-24T06:54:13;16.92;;;13.05;;
64688;SDS011;51114;46.070;14.492;2022-07-24T06:56:39;17.00;;;12.88;;
64688;SDS011;51114;46.070;14.492;2022-07-24T06:59:04;16.67;;;12.48;;
64688;SDS011;51114;46.070;14.492;2022-07-24T07:01:30;15.48;;;12.82;;
64688;SDS011;51114;46.070;14.492;2022-07-24T07:03:55;16.98;;;13.23;;
64688;SDS011;51114;46.070;14.492;2022-07-24T07:06:21;16.25;;;12.95;;
64688;SDS011;51114;46.070;14.492;2022-07-24T07:08:47;15.82;;;11.75;;
64688;SDS011;51114;46.070;14.492;2022-07-24T07:11:13;26.42;;;21.20;;
64688;SDS011;51114;46.070;14.492;2022-07-24T07:13:38;14.82;;;10.90;;
64688;SDS011;51114;46.070;14.492;2022-07-24T07:16:04;13.02;;;11.35;;
64688;SDS011;51114;46.070;14.492;2022-07-24T07:18:30;13.38;;;11.23;;
64688;SDS011;51114;46.070;14.492;2022-07-24T07:20:55;14.65;;;11.55;;
64688;SDS011;51114;46.070;14.492;2022-07-24T07:23:22;13.63;;;11.10;;
64688;SDS011;51114;46.070;14.492;2022-07-24T07:25:48;14.43;;;12.05;;
64688;SDS011;51114;46.070;14.492;2022-07-24T07:28:14;15.30;;;11.38;;
64688;SDS011;51114;46.070;14.492;2022-07-24T07:30:40;15.63;;;11.50;;
64688;SDS011;51114;46.070;14.492;2022-07-24T07:33:06;21.45;;;15.35;;
64688;SDS011;51114;46.070;14.492;2022-07-24T07:35:31;14.50;;;11.18;;
64688;SDS011;51114;46.070;14.492;2022-07-24T07:37:57;15.80;;;13.38;;
64688;SDS011;51114;46.070;14.492;2022-07-24T07:40:23;15.77;;;12.70;;
64688;SDS011;51114;46.070;14.492;2022-07-24T07:42:50;12.05;;;10.82;;
64688;SDS011;51114;46.070;14.492;2022-07-24T07:45:15;16.25;;;12.10;;
64688;SDS011;51114;46.070;14.492;2022-07-24T07:47:41;13.80;;;11.10;;
64688;SDS011;51114;46.070;14.492;2022-07-24T07:50:07;15.98;;;11.77;;
64688;SDS011;51114;46.070;14.492;2022-07-24T07:52:34;14.02;;;11.10;;
64688;SDS011;51114;46.070;14.492;2022-07-24T07:54:59;12.25;;;10.88;;
64688;SDS011;51114;46.070;14.492;2022-07-24T07:57:25;14.82;;;11.23;;
64688;SDS011;51114;46.070;14.492;2022-07-24T07:59:50;15.25;;;10.52;;
64688;SDS011;51114;46.070;14.492;2022-07-24T08:02:16;13.07;;;10.27;;
64688;SDS011;51114;46.070;14.492;2022-07-24T08:04:41;12.13;;;10.15;;
64688;SDS011;51114;46.070;14.492;2022-07-24T08:07:07;11.50;;;10.30;;
64688;SDS011;51114;46.070;14.492;2022-07-24T08:09:33;13.13;;;11.00;;
64688;SDS011;51114;46.070;14.492;2022-07-24T08:11:58;13.15;;;10.73;;
64688;SDS011;51114;46.070;14.492;2022-07-24T08:14:24;13.88;;;12.10;;
64688;SDS011;51114;46.070;14.492;2022-07-24T08:16:50;11.70;;;9.38;;
64688;SDS011;51114;46.070;14.492;2022-07-24T08:19:15;12.80;;;9.55;;
64688;SDS011;51114;46.070;14.492;2022-07-24T08:21:41;9.98;;;8.98;;
64688;SDS011;51114;46.070;14.492;2022-07-24T08:24:07;10.98;;;9.85;;
64688;SDS011;51114;46.070;14.492;2022-07-24T08:26:32;13.60;;;10.88;;
64688;SDS011;51114;46.070;14.492;2022-07-24T08:28:58;18.02;;;12.68;;
64688;SDS011;51114;46.070;14.492;2022-07-24T08:31:25;15.77;;;11.30;;
64688;SDS011;51114;46.070;14.492;2022-07-24T08:33:51;21.02;;;16.35;;
64688;SDS011;51114;46.070;14.492;2022-07-24T08:36:16;20.73;;;17.02;;
64688;SDS011;51114;46.070;14.492;2022-07-24T08:38:42;14.05;;;10.98;;
64688;SDS011;51114;46.070;14.492;2022-07-24T08:41:08;17.08;;;11.38;;
64688;SDS011;51114;46.070;14.492;2022-07-24T08:43:33;14.20;;;11.15;;
64688;SDS011;51114;46.070;14.492;2022-07-24T08:45:59;13.32;;;10.93;;
64688;SDS011;51114;46.070;14.492;2022-07-24T08:48:27;14.05;;;11.30;;
64688;SDS011;51114;46.070;14.492;2022-07-24T08:50:53;14.23;;;10.98;;
64688;SDS011;51114;46.070;14.492;2022-07-24T08:53:21;14.73;;;11.70;;
64688;SDS011;51114;46.070;14.492;2022-07-24T08:55:47;13.32;;;11.20;;
64688;SDS011;51114;46.070;14.492;2022-07-24T08:58:13;13.25;;;11.02;;
64688;SDS011;51114;46.070;14.492;2022-07-24T09:00:39;16.98;;;11.05;;
64688;SDS011;51114;46.070;14.492;2022-07-24T09:03:06;12.15;;;10.85;;
64688;SDS011;51114;46.070;14.492;2022-07-24T09:05:31;13.63;;;10.85;;
64688;SDS011;51114;46.070;14.492;2022-07-24T09:08:10;19.45;;;16.38;;
64688;SDS011;51114;46.070;14.492;2022-07-24T09:10:37;13.32;;;11.63;;
64688;SDS011;51114;46.070;14.492;2022-07-24T09:13:15;14.70;;;10.98;;
64688;SDS011;51114;46.070;14.492;2022-07-24T09:15:45;12.77;;;10.90;;
64688;SDS011;51114;46.070;14.492;2022-07-24T09:18:24;12.32;;;11.07;;
64688;SDS011;51114;46.070;14.492;2022-07-24T09:20:55;12.57;;;10.77;;
64688;SDS011;51114;46.070;14.492;2022-07-24T09:23:21;16.20;;;11.32;;
64688;SDS011;51114;46.070;14.492;2022-07-24T09:25:53;13.50;;;10.55;;
64688;SDS011;51114;46.070;14.492;2022-07-24T09:28:20;12.40;;;10.93;;
64688;SDS011;51114;46.070;14.492;2022-07-24T09:30:46;13.30;;;10.82;;
64688;SDS011;51114;46.070;14.492;2022-07-24T09:33:16;14.02;;;11.82;;
64688;SDS011;51114;46.070;14.492;2022-07-24T09:38:17;12.80;;;10.93;;
64688;SDS011;51114;46.070;14.492;2022-07-24T09:40:51;12.95;;;11.13;;
64688;SDS011;51114;46.070;14.492;2022-07-24T09:43:29;14.80;;;10.60;;
64688;SDS011;51114;46.070;14.492;2022-07-24T09:48:22;11.95;;;10.65;;
64688;SDS011;51114;46.070;14.492;2022-07-24T09:50:54;13.18;;;10.70;;
64688;SDS011;51114;46.070;14.492;2022-07-24T09:53:23;12.30;;;10.23;;
64688;SDS011;51114;46.070;14.492;2022-07-24T09:56:01;12.25;;;9.98;;
64688;SDS011;51114;46.070;14.492;2022-07-24T10:01:11;12.98;;;10.27;;
64688;SDS011;51114;46.070;14.492;2022-07-24T10:03:42;10.65;;;9.55;;
64688;SDS011;51114;46.070;14.492;2022-07-24T10:06:10;12.55;;;10.10;;
64688;SDS011;51114;46.070;14.492;2022-07-24T10:08:38;13.48;;;10.30;;
64688;SDS011;51114;46.070;14.492;2022-07-24T10:11:09;12.05;;;10.05;;
64688;SDS011;51114;46.070;14.492;2022-07-24T10:13:35;12.88;;;9.52;;
64688;SDS011;51114;46.070;14.492;2022-07-24T10:18:45;13.27;;;10.30;;
64688;SDS011;51114;46.070;14.492;2022-07-24T10:21:14;12.63;;;9.43;;
64688;SDS011;51114;46.070;14.492;2022-07-24T10:29:11;10.00;;;8.95;;
64688;SDS011;51114;46.070;14.492;2022-07-24T10:31:43;12.32;;;9.38;;
64688;SDS011;51114;46.070;14.492;2022-07-24T10:45:33;12.40;;;10.05;;
64688;SDS011;51114;46.070;14.492;2022-07-24T10:48:23;11.80;;;10.55;;
64688;SDS011;51114;46.070;14.492;2022-07-24T10:53:26;10.32;;;9.00;;
64688;SDS011;51114;46.070;14.492;2022-07-24T10:56:13;10.68;;;8.82;;
64688;SDS011;51114;46.070;14.492;2022-07-24T11:01:32;12.45;;;9.90;;
64688;SDS011;51114;46.070;14.492;2022-07-24T11:07:29;10.02;;;8.70;;
64688;SDS011;51114;46.070;14.492;2022-07-24T11:09:36;10.65;;;8.93;;
64688;SDS011;51114;46.070;14.492;2022-07-24T11:12:31;12.18;;;9.25;;
64688;SDS011;51114;46.070;14.492;2022-07-24T11:14:59;10.82;;;8.95;;
64688;SDS011;51114;46.070;14.492;2022-07-24T11:17:46;10.10;;;8.90;;
64688;SDS011;51114;46.070;14.492;2022-07-24T11:20:15;11.88;;;8.60;;
64688;SDS011;51114;46.070;14.492;2022-07-24T11:22:52;9.95;;;8.85;;
64688;SDS011;51114;46.070;14.492;2022-07-24T11:25:20;10.48;;;8.80;;
64688;SDS011;51114;46.070;14.492;2022-07-24T11:27:58;9.85;;;8.85;;
64688;SDS011;51114;46.070;14.492;2022-07-24T11:30:31;11.07;;;8.98;;
64688;SDS011;51114;46.070;14.492;2022-07-24T11:32:57;11.00;;;9.15;;
64688;SDS011;51114;46.070;14.492;2022-07-24T11:35:28;11.48;;;9.27;;
64688;SDS011;51114;46.070;14.492;2022-07-24T11:37:58;10.75;;;9.15;;
64688;SDS011;51114;46.070;14.492;2022-07-24T11:40:25;10.82;;;8.57;;
64688;SDS011;51114;46.070;14.492;2022-07-24T11:42:55;12.20;;;8.95;;
64688;SDS011;51114;46.070;14.492;2022-07-24T11:45:22;9.65;;;8.57;;
64688;SDS011;51114;46.070;14.492;2022-07-24T11:47:48;11.75;;;9.35;;
64688;SDS011;51114;46.070;14.492;2022-07-24T11:50:13;10.65;;;9.00;;
64688;SDS011;51114;46.070;14.492;2022-07-24T11:52:40;10.27;;;9.13;;
64688;SDS011;51114;46.070;14.492;2022-07-24T11:55:07;9.98;;;9.00;;
64688;SDS011;51114;46.070;14.492;2022-07-24T11:57:38;14.05;;;9.27;;
64688;SDS011;51114;46.070;14.492;2022-07-24T12:00:06;12.23;;;9.30;;
64688;SDS011;51114;46.070;14.492;2022-07-24T12:02:35;10.40;;;8.80;;
64688;SDS011;51114;46.070;14.492;2022-07-24T12:05:01;10.40;;;9.00;;
64688;SDS011;51114;46.070;14.492;2022-07-24T12:07:26;10.25;;;8.88;;
64688;SDS011;51114;46.070;14.492;2022-07-24T12:09:57;10.43;;;8.73;;
64688;SDS011;51114;46.070;14.492;2022-07-24T12:15:13;9.60;;;8.18;;
64688;SDS011;51114;46.070;14.492;2022-07-24T12:20:27;11.82;;;10.07;;
64688;SDS011;51114;46.070;14.492;2022-07-24T12:22:57;9.88;;;8.05;;
64688;SDS011;51114;46.070;14.492;2022-07-24T12:25:25;9.40;;;8.25;;
64688;SDS011;51114;46.070;14.492;2022-07-24T12:28:00;9.95;;;7.97;;
64688;SDS011;51114;46.070;14.492;2022-07-24T12:30:43;10.48;;;7.90;;
64688;SDS011;51114;46.070;14.492;2022-07-24T12:38:28;9.98;;;7.63;;
64688;SDS011;51114;46.070;14.492;2022-07-24T12:43:30;9.95;;;8.57;;
64688;SDS011;51114;46.070;14.492;2022-07-24T12:46:09;9.68;;;7.93;;
64688;SDS011;51114;46.070;14.492;2022-07-24T12:48:36;11.38;;;8.40;;
64688;SDS011;51114;46.070;14.492;2022-07-24T12:53:31;9.38;;;8.05;;
64688;SDS011;51114;46.070;14.492;2022-07-24T12:56:15;8.77;;;7.82;;
64688;SDS011;51114;46.070;14.492;2022-07-24T13:01:25;8.68;;;7.78;;
64688;SDS011;51114;46.070;14.492;2022-07-24T13:04:08;9.73;;;8.10;;
64688;SDS011;51114;46.070;14.492;2022-07-24T13:06:41;11.43;;;8.00;;
64688;SDS011;51114;46.070;14.492;2022-07-24T13:09:09;10.05;;;8.27;;
64688;SDS011;51114;46.070;14.492;2022-07-24T13:11:36;9.38;;;8.15;;
64688;SDS011;51114;46.070;14.492;2022-07-24T13:14:03;9.35;;;8.38;;
64688;SDS011;51114;46.070;14.492;2022-07-24T13:16:30;12.60;;;8.10;;
64688;SDS011;51114;46.070;14.492;2022-07-24T13:18:59;12.88;;;8.10;;
64688;SDS011;51114;46.070;14.492;2022-07-24T13:21:26;9.57;;;7.97;;
64688;SDS011;51114;46.070;14.492;2022-07-24T13:23:52;11.98;;;8.00;;
64688;SDS011;51114;46.070;14.492;2022-07-24T13:26:19;11.95;;;7.60;;
64688;SDS011;51114;46.070;14.492;2022-07-24T13:28:45;8.75;;;7.85;;
64688;SDS011;51114;46.070;14.492;2022-07-24T13:31:12;10.02;;;8.20;;
64688;SDS011;51114;46.070;14.492;2022-07-24T13:33:37;9.10;;;8.02;;
64688;SDS011;51114;46.070;14.492;2022-07-24T13:36:03;8.70;;;7.57;;
64688;SDS011;51114;46.070;14.492;2022-07-24T13:38:29;10.63;;;7.70;;
64688;SDS011;51114;46.070;14.492;2022-07-24T13:40:55;11.25;;;7.80;;
64688;SDS011;51114;46.070;14.492;2022-07-24T13:43:21;12.80;;;8.35;;
64688;SDS011;51114;46.070;14.492;2022-07-24T13:45:46;10.68;;;7.97;;
64688;SDS011;51114;46.070;14.492;2022-07-24T13:48:12;8.55;;;7.65;;
64688;SDS011;51114;46.070;14.492;2022-07-24T13:50:37;9.00;;;8.10;;
64688;SDS011;51114;46.070;14.492;2022-07-24T13:53:03;10.68;;;7.95;;
64688;SDS011;51114;46.070;14.492;2022-07-24T13:55:30;9.98;;;7.72;;
64688;SDS011;51114;46.070;14.492;2022-07-24T13:57:56;10.35;;;7.90;;
64688;SDS011;51114;46.070;14.492;2022-07-24T14:00:22;10.05;;;7.80;;
64688;SDS011;51114;46.070;14.492;2022-07-24T14:02:49;10.02;;;7.95;;
64688;SDS011;51114;46.070;14.492;2022-07-24T14:05:15;8.20;;;7.40;;
64688;SDS011;51114;46.070;14.492;2022-07-24T14:07:41;8.93;;;7.45;;
64688;SDS011;51114;46.070;14.492;2022-07-24T14:10:06;9.65;;;7.75;;
64688;SDS011;51114;46.070;14.492;2022-07-24T14:12:32;9.52;;;7.70;;
64688;SDS011;51114;46.070;14.492;2022-07-24T14:14:58;9.60;;;7.78;;
64688;SDS011;51114;46.070;14.492;2022-07-24T14:17:23;10.88;;;7.90;;
64688;SDS011;51114;46.070;14.492;2022-07-24T14:19:49;9.45;;;7.68;;
64688;SDS011;51114;46.070;14.492;2022-07-24T14:22:14;9.65;;;8.18;;
64688;SDS011;51114;46.070;14.492;2022-07-24T14:24:40;10.85;;;7.95;;
64688;SDS011;51114;46.070;14.492;2022-07-24T14:27:06;9.13;;;7.90;;
64688;SDS011;51114;46.070;14.492;2022-07-24T14:29:31;9.52;;;7.78;;
64688;SDS011;51114;46.070;14.492;2022-07-24T14:31:57;9.82;;;7.75;;
64688;SDS011;51114;46.070;14.492;2022-07-24T14:34:22;10.73;;;7.90;;
64688;SDS011;51114;46.070;14.492;2022-07-24T14:36:48;9.50;;;8.30;;
64688;SDS011;51114;46.070;14.492;2022-07-24T14:39:14;8.50;;;7.68;;
64688;SDS011;51114;46.070;14.492;2022-07-24T14:41:39;9.35;;;7.60;;
64688;SDS011;51114;46.070;14.492;2022-07-24T14:44:05;8.13;;;7.30;;
64688;SDS011;51114;46.070;14.492;2022-07-24T14:46:31;8.57;;;7.60;;
64688;SDS011;51114;46.070;14.492;2022-07-24T14:48:56;9.52;;;8.10;;
64688;SDS011;51114;46.070;14.492;2022-07-24T14:51:22;8.48;;;7.22;;
64688;SDS011;51114;46.070;14.492;2022-07-24T14:53:48;8.68;;;7.38;;
64688;SDS011;51114;46.070;14.492;2022-07-24T14:56:13;11.18;;;7.75;;
64688;SDS011;51114;46.070;14.492;2022-07-24T14:58:39;8.98;;;7.00;;
64688;SDS011;51114;46.070;14.492;2022-07-24T15:01:08;9.63;;;7.65;;
64688;SDS011;51114;46.070;14.492;2022-07-24T15:03:33;12.57;;;7.28;;
64688;SDS011;51114;46.070;14.492;2022-07-24T15:05:59;10.70;;;7.60;;